Time;durP1;ratioP1;P1;durP2;ratioP2;P2;SDS_P1;SDS_P2;PMS_P1;PMS_P2;Temp;Humidity;BMP_temperature;BMP_pressure;BME280_temperature;BME280_humidity;BME280_pressure;Samples;Min_cycle;Max_cycle;Signal;HPM_P1;HPM_P2
2023/08/18 00:00:32;;;;;;;11.90;8.60;;;;;;;17.76;84.37;97504.41;108812;1252;94155;-81
2023/08/18 00:03:20;;;;;;;13.50;9.10;;;;;;;17.79;84.44;97505.33;108871;1250;94595;-81
2023/08/18 00:05:48;;;;;;;9.30;8.40;;;;;;;17.81;84.43;97508.47;108911;1250;102421;-83
2023/08/18 00:08:16;;;;;;;15.30;8.60;;;;;;;17.83;84.33;97507.36;108818;1252;101767;-82
2023/08/18 00:10:44;;;;;;;11.20;8.90;;;;;;;17.85;84.32;97508.54;108804;1252;100130;-83
2023/08/18 00:13:11;;;;;;;11.10;8.50;;;;;;;17.85;84.20;97508.04;108780;1251;94747;-81
2023/08/18 00:15:39;;;;;;;10.70;8.00;;;;;;;17.85;84.21;97502.36;108758;1252;94500;-81
2023/08/18 00:18:06;;;;;;;12.20;8.30;;;;;;;17.86;84.00;97503.26;108801;1252;102052;-81
2023/08/18 00:20:34;;;;;;;9.50;7.90;;;;;;;17.87;84.10;97505.71;108825;1252;101675;-80
2023/08/18 00:23:02;;;;;;;12.40;7.90;;;;;;;17.87;83.95;97502.16;108858;1250;100173;-82
2023/08/18 00:25:29;;;;;;;12.40;8.00;;;;;;;17.84;84.11;97493.78;108818;1252;94230;-84
2023/08/18 00:27:57;;;;;;;11.40;8.10;;;;;;;17.83;83.99;97488.52;108780;1252;94623;-82
2023/08/18 00:30:25;;;;;;;14.40;8.30;;;;;;;17.84;84.02;97490.77;108868;1250;109991;-83
2023/08/18 00:32:53;;;;;;;13.90;8.70;;;;;;;17.83;84.06;97485.69;108834;1251;101625;-81
2023/08/18 00:35:20;;;;;;;13.40;8.40;;;;;;;17.82;84.15;97482.11;108875;1253;99929;-83
2023/08/18 00:37:49;;;;;;;13.50;8.40;;;;;;;17.76;83.97;97484.27;108775;1252;94374;-83
2023/08/18 00:40:17;;;;;;;11.00;7.90;;;;;;;17.73;84.10;97479.12;108781;1252;94619;-82
2023/08/18 00:42:45;;;;;;;11.30;9.10;;;;;;;17.66;84.27;97482.20;108837;1252;102368;-80
2023/08/18 00:45:12;;;;;;;10.70;9.00;;;;;;;17.60;84.16;97479.48;108828;1252;101559;-83
2023/08/18 00:47:40;;;;;;;10.90;9.30;;;;;;;17.53;84.46;97476.11;108800;1252;98581;-83
2023/08/18 00:50:10;;;;;;;16.40;9.90;;;;;;;17.50;84.41;97471.11;108781;1252;94271;-84
2023/08/18 00:52:39;;;;;;;13.20;9.80;;;;;;;17.53;84.63;97474.80;108771;1252;94651;-82
2023/08/18 00:55:09;;;;;;;11.30;9.40;;;;;;;17.58;84.65;97471.54;108837;1252;102461;-80
2023/08/18 00:57:37;;;;;;;13.60;9.40;;;;;;;17.61;84.37;97469.98;108852;1252;101575;-83
2023/08/18 01:00:06;;;;;;;12.80;9.10;;;;;;;17.62;84.40;97464.28;108801;1252;99935;-81
2023/08/18 01:02:34;;;;;;;11.30;8.70;;;;;;;17.62;84.36;97460.41;108779;1253;94168;-84
2023/08/18 01:05:02;;;;;;;8.90;8.00;;;;;;;17.57;84.41;97463.00;108851;1252;94628;-83
2023/08/18 01:07:30;;;;;;;11.30;8.60;;;;;;;17.51;84.16;97458.34;108810;1252;102407;-80
2023/08/18 01:09:58;;;;;;;10.60;8.60;;;;;;;17.51;84.22;97458.58;108810;1253;101572;-81
2023/08/18 01:12:51;;;;;;;10.50;8.40;;;;;;;17.47;84.17;97458.09;108834;1253;100051;-82
2023/08/18 01:15:29;;;;;;;14.10;8.60;;;;;;;17.39;84.41;97460.05;108822;1252;94155;-79
2023/08/18 01:18:03;;;;;;;12.30;8.90;;;;;;;17.39;84.43;97459.17;108810;1252;95127;-83
2023/08/18 01:20:32;;;;;;;10.90;7.40;;;;;;;17.40;84.28;97460.60;108825;1253;102304;-80
2023/08/18 01:23:01;;;;;;;15.40;8.30;;;;;;;17.40;84.48;97464.48;108590;1253;101547;-80
2023/08/18 01:25:29;;;;;;;11.30;8.60;;;;;;;17.42;84.38;97461.11;108514;1255;100221;-81
2023/08/18 01:27:59;;;;;;;13.50;8.10;;;;;;;17.44;84.56;97456.73;108543;1254;94620;-82
2023/08/18 01:30:36;;;;;;;12.90;8.60;;;;;;;17.46;84.28;97455.66;108574;1255;94904;-80
2023/08/18 01:33:30;;;;;;;13.80;7.30;;;;;;;17.46;84.32;97451.63;108516;1255;102540;-80
2023/08/18 01:36:08;;;;;;;10.10;7.60;;;;;;;17.42;84.22;97452.55;108503;1255;101792;-83
2023/08/18 01:38:38;;;;;;;12.00;6.90;;;;;;;17.36;84.21;97451.30;108384;1255;100039;-83
2023/08/18 01:41:06;;;;;;;9.80;6.90;;;;;;;17.34;84.44;97458.02;108497;1256;94608;-80
2023/08/18 01:43:34;;;;;;;15.00;7.80;;;;;;;17.30;84.40;97462.81;108514;1255;94736;-84
2023/08/18 01:46:02;;;;;;;13.50;7.60;;;;;;;17.29;84.47;97459.70;108541;1255;102381;-85
2023/08/18 01:48:30;;;;;;;9.70;7.90;;;;;;;17.31;84.35;97460.16;108565;1255;101671;-81
2023/08/18 01:50:58;;;;;;;11.80;8.00;;;;;;;17.33;84.49;97461.77;108588;1255;100105;-82
2023/08/18 01:53:25;;;;;;;9.70;7.80;;;;;;;17.34;84.44;97468.39;108585;1255;94279;-82
2023/08/18 01:55:53;;;;;;;10.70;7.30;;;;;;;17.36;84.31;97466.00;108883;1251;95617;-82
2023/08/18 01:58:21;;;;;;;9.10;7.40;;;;;;;17.37;84.40;97467.94;108890;1252;102534;-83
2023/08/18 02:00:55;;;;;;;9.00;7.90;;;;;;;17.38;84.35;97462.93;108860;1251;101659;-84
2023/08/18 02:03:31;;;;;;;9.20;7.90;;;;;;;17.36;84.42;97462.64;108781;1252;100008;-80
2023/08/18 02:06:00;;;;;;;8.60;7.70;;;;;;;17.34;84.38;97462.11;108817;1251;94339;-80
2023/08/18 02:08:28;;;;;;;11.20;8.30;;;;;;;17.33;84.44;97460.63;108824;1251;94611;-84
2023/08/18 02:11:04;;;;;;;9.80;7.70;;;;;;;17.32;84.63;97461.20;108943;1251;102384;-82
2023/08/18 02:13:32;;;;;;;10.50;7.20;;;;;;;17.25;84.46;97461.72;108810;1252;101597;-83
2023/08/18 02:16:00;;;;;;;9.10;7.60;;;;;;;17.17;84.40;97463.67;108840;1252;107910;-81
2023/08/18 02:18:28;;;;;;;10.40;8.40;;;;;;;17.15;84.94;97463.65;108880;1252;94355;-85
2023/08/18 02:21:00;;;;;;;8.70;7.80;;;;;;;17.17;85.12;97464.38;108868;1252;95311;-82
2023/08/18 02:23:27;;;;;;;11.40;8.00;;;;;;;17.16;84.94;97458.26;108857;1250;102824;-84
2023/08/18 02:26:06;;;;;;;16.00;8.30;;;;;;;17.19;85.11;97451.15;109007;1251;101627;-80
2023/08/18 02:28:34;;;;;;;9.60;8.50;;;;;;;17.22;85.07;97455.18;109007;1250;106607;-83
2023/08/18 02:31:05;;;;;;;11.90;8.20;;;;;;;17.19;85.11;97459.19;108953;1253;94178;-83
2023/08/18 02:33:34;;;;;;;16.00;8.80;;;;;;;17.13;85.19;97459.53;108930;1251;94590;-81
2023/08/18 02:36:02;;;;;;;11.90;8.20;;;;;;;17.06;85.45;97460.59;108869;1251;102515;-80
2023/08/18 02:38:30;;;;;;;14.40;8.40;;;;;;;17.02;85.59;97462.82;108862;1253;101649;-82
2023/08/18 02:40:58;;;;;;;16.70;9.10;;;;;;;16.97;85.84;97466.23;108647;1251;99942;-80
2023/08/18 02:43:26;;;;;;;13.10;9.70;;;;;;;16.93;85.81;97460.23;108864;1251;94230;-81
2023/08/18 02:45:57;;;;;;;19.20;9.80;;;;;;;16.97;85.61;97456.63;108896;1251;94552;-80
2023/08/18 02:48:29;;;;;;;11.30;9.20;;;;;;;17.02;85.83;97451.02;108834;1251;102383;-80
2023/08/18 02:51:07;;;;;;;14.80;9.60;;;;;;;17.06;85.95;97451.80;108742;1253;101566;-81
2023/08/18 02:53:37;;;;;;;17.30;9.60;;;;;;;17.10;85.84;97451.86;108708;1253;100117;-80
2023/08/18 02:56:04;;;;;;;11.70;9.20;;;;;;;17.13;85.92;97453.38;108330;1257;95934;-83
2023/08/18 02:58:33;;;;;;;12.30;9.00;;;;;;;17.13;85.73;97450.77;108332;1258;94361;-81
2023/08/18 03:01:06;;;;;;;14.80;9.10;;;;;;;17.16;85.58;97451.11;108308;1257;101225;-83
2023/08/18 03:03:34;;;;;;;16.40;9.90;;;;;;;17.17;85.47;97446.37;108321;1257;101786;-84
2023/08/18 03:06:06;;;;;;;10.50;9.00;;;;;;;17.18;85.47;97442.58;108286;1257;100255;-80
2023/08/18 03:08:35;;;;;;;14.60;9.60;;;;;;;17.19;85.46;97439.92;108280;1257;94233;-82
2023/08/18 03:11:04;;;;;;;11.50;9.50;;;;;;;17.16;85.47;97443.48;108331;1259;94384;-83
2023/08/18 03:13:32;;;;;;;11.90;9.20;;;;;;;17.09;85.26;97446.02;108325;1257;110034;-82
2023/08/18 03:16:00;;;;;;;12.70;8.50;;;;;;;17.10;85.40;97446.20;108310;1257;108302;-81
2023/08/18 03:18:28;;;;;;;12.00;8.40;;;;;;;17.11;85.48;97446.48;108290;1257;100184;-84
2023/08/18 03:21:00;;;;;;;11.90;8.50;;;;;;;17.09;85.23;97445.25;108248;1258;94282;-82
2023/08/18 03:23:28;;;;;;;;;;;;;;;17.08;85.22;97443.81;108502;1256;94779;-83
2023/08/18 03:26:01;;;;;;;10.00;8.50;;;;;;;17.08;85.41;97445.33;108521;1256;109057;-80
2023/08/18 03:28:28;;;;;;;11.60;8.20;;;;;;;17.07;85.47;97444.23;108811;1253;101479;-81
2023/08/18 03:31:04;;;;;;;12.50;8.70;;;;;;;17.04;85.22;97445.71;108834;1253;100176;-79
2023/08/18 03:33:32;;;;;;;12.70;8.60;;;;;;;17.05;85.47;97443.65;108866;1251;94264;-82
2023/08/18 03:36:00;;;;;;;12.40;8.90;;;;;;;17.07;85.30;97441.88;108871;1252;94593;-82
2023/08/18 03:38:28;;;;;;;10.00;8.10;;;;;;;17.08;85.22;97442.34;108880;1252;102455;-81
2023/08/18 03:41:01;;;;;;;14.60;8.50;;;;;;;17.07;85.32;97442.04;108853;1252;101552;-84
2023/08/18 03:43:28;;;;;;;14.80;9.10;;;;;;;17.00;85.38;97448.48;108830;1251;105990;-82
2023/08/18 03:46:01;;;;;;;18.00;8.90;;;;;;;16.91;85.52;97445.70;108893;1253;94202;-85
2023/08/18 03:48:28;;;;;;;;;;;;;;;16.85;85.69;97442.94;108931;1251;94211;-82
2023/08/18 03:50:56;;;;;;;10.60;8.30;;;;;;;16.78;86.20;97443.89;108908;1252;102311;-81
2023/08/18 03:53:24;;;;;;;14.70;9.40;;;;;;;16.74;86.56;97445.77;108951;1251;101452;-84
2023/08/18 03:55:56;;;;;;;11.60;9.60;;;;;;;16.71;86.82;97445.63;108867;1251;99195;-82
2023/08/18 03:58:23;;;;;;;10.80;8.80;;;;;;;16.71;86.85;97447.91;108879;1252;94176;-83
2023/08/18 04:00:51;;;;;;;12.40;9.60;;;;;;;16.74;86.71;97448.92;108907;1253;94648;-82
2023/08/18 04:03:19;;;;;;;14.70;9.30;;;;;;;16.79;86.91;97450.98;108931;1252;102497;-83
2023/08/18 04:05:47;;;;;;;13.70;9.70;;;;;;;16.84;86.70;97455.48;108897;1251;111124;-80
2023/08/18 04:08:15;;;;;;;15.70;9.50;;;;;;;16.88;86.69;97451.02;108795;1251;176434;-81
2023/08/18 04:10:43;;;;;;;11.90;8.80;;;;;;;16.88;86.54;97448.02;108862;1251;94293;-82
2023/08/18 04:13:11;;;;;;;13.20;9.20;;;;;;;16.88;86.50;97449.39;108866;1251;94478;-84
2023/08/18 04:15:38;;;;;;;10.70;8.60;;;;;;;16.91;86.48;97449.41;108884;1251;102383;-81
2023/08/18 04:18:06;;;;;;;15.50;9.10;;;;;;;16.95;86.24;97449.57;108861;1252;101653;-83
2023/08/18 04:20:35;;;;;;;17.00;9.40;;;;;;;16.98;86.21;97450.17;108894;1253;100646;-80
2023/08/18 04:23:03;;;;;;;13.30;9.90;;;;;;;16.97;86.31;97448.02;108856;1251;94229;-80
2023/08/18 04:25:30;;;;;;;11.70;10.30;;;;;;;16.96;86.45;97452.74;108948;1253;94738;-82
2023/08/18 04:27:58;;;;;;;13.90;10.00;;;;;;;16.98;86.43;97451.95;108854;1252;102224;-83
2023/08/18 04:30:26;;;;;;;11.00;9.60;;;;;;;17.01;86.47;97453.48;108913;1251;101487;-83
2023/08/18 04:32:53;;;;;;;13.40;9.80;;;;;;;17.02;86.46;97452.40;108833;1253;100132;-82
2023/08/18 04:35:21;;;;;;;12.10;10.30;;;;;;;17.04;86.37;97448.05;108890;1251;94236;-84
2023/08/18 04:37:49;;;;;;;12.20;10.20;;;;;;;17.06;86.13;97449.73;108859;1251;94879;-83
2023/08/18 04:40:17;;;;;;;15.40;10.70;;;;;;;17.10;86.20;97449.09;108877;1251;102221;-84
2023/08/18 04:42:44;;;;;;;13.90;9.70;;;;;;;17.15;86.24;97450.17;108862;1251;101735;-83
2023/08/18 04:45:12;;;;;;;14.00;10.40;;;;;;;17.17;86.15;97444.86;108881;1251;99646;-80
2023/08/18 04:47:40;;;;;;;12.40;10.10;;;;;;;17.20;86.34;97444.09;108862;1251;94217;-84
2023/08/18 04:50:08;;;;;;;13.10;10.80;;;;;;;17.22;86.19;97438.89;108916;1251;94171;-80
2023/08/18 04:52:36;;;;;;;12.80;10.30;;;;;;;17.23;85.96;97436.88;108923;1251;102058;-85
2023/08/18 04:55:04;;;;;;;15.00;10.50;;;;;;;17.25;85.92;97433.40;108894;1251;100808;-84
2023/08/18 04:57:32;;;;;;;14.30;10.00;;;;;;;17.27;85.88;97435.02;108862;1251;100062;-83
2023/08/18 04:59:59;;;;;;;15.10;11.50;;;;;;;17.30;85.90;97437.23;108808;1251;94698;-80
2023/08/18 05:02:27;;;;;;;15.10;11.50;;;;;;;17.34;85.88;97433.41;108778;1251;94562;-82
2023/08/18 05:04:55;;;;;;;15.30;10.90;;;;;;;17.36;85.84;97435.90;108865;1251;102440;-80
2023/08/18 05:07:22;;;;;;;16.80;11.00;;;;;;;17.40;86.06;97434.85;108899;1251;101560;-81
2023/08/18 05:09:50;;;;;;;12.90;11.50;;;;;;;17.44;86.12;97432.13;108999;1252;100182;-82
2023/08/18 05:12:18;;;;;;;13.70;11.30;;;;;;;17.49;86.14;97437.21;108810;1251;94364;-84
2023/08/18 05:14:45;;;;;;;15.80;11.80;;;;;;;17.54;86.36;97440.70;108733;1253;94855;-83
2023/08/18 05:17:13;;;;;;;16.80;12.20;;;;;;;17.55;86.30;97444.09;108895;1250;100611;-82
2023/08/18 05:19:41;;;;;;;14.70;11.20;;;;;;;17.56;86.13;97446.51;108815;1250;100079;-81
2023/08/18 05:22:08;;;;;;;21.50;12.30;;;;;;;17.60;86.07;97446.45;108746;1251;107679;-82
2023/08/18 05:24:36;;;;;;;16.30;12.80;;;;;;;17.64;86.21;97446.51;108716;1251;94250;-82
2023/08/18 05:27:04;;;;;;;14.30;12.00;;;;;;;17.67;86.29;97445.63;108949;1250;94511;-83
2023/08/18 05:29:31;;;;;;;18.20;12.40;;;;;;;17.71;86.24;97443.39;109057;1253;102347;-81
2023/08/18 05:31:59;;;;;;;17.00;12.00;;;;;;;17.75;86.30;97442.55;108965;1250;101706;-80
2023/08/18 05:34:27;;;;;;;14.40;11.40;;;;;;;17.79;86.13;97438.81;108934;1253;107787;-79
2023/08/18 05:36:54;;;;;;;12.60;11.30;;;;;;;17.82;86.35;97439.78;108809;1253;94207;-80
2023/08/18 05:39:22;;;;;;;16.50;11.80;;;;;;;17.85;86.31;97440.77;108850;1251;94491;-80
2023/08/18 05:41:50;;;;;;;15.10;12.10;;;;;;;17.89;86.21;97439.70;108800;1252;102205;-83
2023/08/18 05:44:17;;;;;;;14.10;11.10;;;;;;;17.94;86.02;97438.55;108869;1251;101596;-83
2023/08/18 05:46:45;;;;;;;18.70;12.00;;;;;;;17.97;86.11;97438.70;108845;1251;100073;-81
2023/08/18 05:49:13;;;;;;;15.90;11.20;;;;;;;18.00;86.05;97438.73;108832;1251;94166;-81
2023/08/18 05:51:44;;;;;;;15.70;11.20;;;;;;;18.05;86.16;97443.59;108854;1253;94675;-78
2023/08/18 05:54:11;;;;;;;13.30;11.70;;;;;;;18.10;86.07;97440.25;108882;1255;111916;-79
2023/08/18 05:56:39;;;;;;;14.10;10.90;;;;;;;18.14;86.46;97437.11;108816;1251;110521;-83
2023/08/18 05:59:07;;;;;;;17.90;11.50;;;;;;;18.19;86.39;97438.77;108802;1251;100089;-79
2023/08/18 06:01:35;;;;;;;11.50;10.30;;;;;;;18.25;86.66;97439.18;108778;1253;94145;-83
2023/08/18 06:04:03;;;;;;;11.60;10.40;;;;;;;18.30;86.69;97439.79;108834;1251;94589;-82
2023/08/18 06:06:32;;;;;;;11.40;10.30;;;;;;;18.35;86.78;97441.34;108847;1251;111110;-80
2023/08/18 06:09:01;;;;;;;13.90;10.10;;;;;;;18.40;86.84;97441.55;108858;1251;101476;-81
2023/08/18 06:11:29;;;;;;;11.50;9.10;;;;;;;18.45;86.86;97439.48;108850;1251;100230;-80
2023/08/18 06:13:56;;;;;;;11.00;9.90;;;;;;;18.51;87.02;97438.86;108825;1253;95078;-82
2023/08/18 06:16:24;;;;;;;15.00;10.30;;;;;;;18.56;86.96;97442.23;108941;1251;94619;-80
2023/08/18 06:18:52;;;;;;;12.50;9.70;;;;;;;18.57;87.17;97443.73;108868;1251;109982;-81
2023/08/18 06:21:19;;;;;;;11.40;10.00;;;;;;;18.58;86.74;97447.27;108851;1251;101763;-80
2023/08/18 06:23:48;;;;;;;12.50;10.00;;;;;;;18.64;86.92;97450.64;108798;1251;99802;-82
2023/08/18 06:26:16;;;;;;;13.60;9.90;;;;;;;18.71;86.92;97446.54;108811;1251;94206;-79
2023/08/18 06:28:43;;;;;;;11.60;10.50;;;;;;;18.78;86.84;97442.48;108844;1252;94266;-79
2023/08/18 06:31:11;;;;;;;12.10;9.10;;;;;;;18.86;86.91;97446.42;108919;1252;102362;-81
2023/08/18 06:33:39;;;;;;;12.40;9.70;;;;;;;18.93;86.99;97448.40;108834;1253;101515;-83
2023/08/18 06:36:06;;;;;;;12.30;10.00;;;;;;;19.01;87.11;97441.71;108807;1251;99779;-81
2023/08/18 06:38:34;;;;;;;18.00;10.10;;;;;;;19.09;87.38;97440.27;108858;1253;94167;-81
2023/08/18 06:41:02;;;;;;;13.70;10.10;;;;;;;19.17;87.41;97439.67;108853;1251;94494;-81
2023/08/18 06:43:29;;;;;;;11.10;9.70;;;;;;;19.25;87.35;97440.91;108892;1255;102427;-80
2023/08/18 06:45:57;;;;;;;11.00;9.80;;;;;;;19.32;87.35;97441.39;108861;1252;101535;-81
2023/08/18 06:48:25;;;;;;;10.90;9.70;;;;;;;19.39;87.56;97436.50;108862;1251;99961;-82
2023/08/18 06:50:52;;;;;;;11.20;9.70;;;;;;;19.47;87.45;97433.20;108806;1253;94527;-79
2023/08/18 06:53:20;;;;;;;12.60;10.50;;;;;;;19.55;87.42;97437.85;108856;1251;94842;-80
2023/08/18 06:55:48;;;;;;;10.40;9.30;;;;;;;19.61;87.34;97438.42;108870;1251;102459;-80
2023/08/18 06:58:15;;;;;;;12.10;10.00;;;;;;;19.68;87.22;97440.14;108891;1251;101621;-82
2023/08/18 07:00:43;;;;;;;11.20;10.10;;;;;;;19.75;87.21;97438.09;108821;1251;100127;-79
2023/08/18 07:03:11;;;;;;;10.90;9.80;;;;;;;19.85;87.39;97437.46;108805;1251;94159;-78
2023/08/18 07:05:38;;;;;;;10.90;9.80;;;;;;;19.91;87.51;97443.07;108822;1252;94693;-79
2023/08/18 07:08:07;;;;;;;11.80;9.60;;;;;;;19.98;87.25;97441.33;108800;1251;102003;-83
2023/08/18 07:10:34;;;;;;;14.10;10.10;;;;;;;20.06;87.04;97439.04;108862;1253;101616;-81
2023/08/18 07:13:03;;;;;;;10.80;9.70;;;;;;;20.15;86.72;97440.32;108853;1250;100308;-80
2023/08/18 07:15:31;;;;;;;10.60;9.50;;;;;;;20.23;86.72;97439.40;108817;1251;94600;-79
2023/08/18 07:17:59;;;;;;;13.50;9.80;;;;;;;20.32;86.79;97436.67;109027;1251;94580;-82
2023/08/18 07:20:27;;;;;;;10.00;8.90;;;;;;;20.42;86.80;97438.30;108987;1249;101154;-84
2023/08/18 07:22:55;;;;;;;11.30;9.30;;;;;;;20.52;86.94;97436.98;108901;1250;101591;-80
2023/08/18 07:25:24;;;;;;;12.10;10.30;;;;;;;20.61;86.47;97436.60;108918;1251;99988;-81
2023/08/18 07:27:52;;;;;;;10.00;9.00;;;;;;;20.68;86.12;97433.09;108813;1251;94169;-80
2023/08/18 07:30:19;;;;;;;9.70;8.70;;;;;;;20.78;85.97;97429.77;108922;1251;94639;-84
2023/08/18 07:32:47;;;;;;;10.20;9.00;;;;;;;20.88;85.97;97432.52;108889;1250;102128;-79
2023/08/18 07:35:15;;;;;;;11.30;9.00;;;;;;;21.00;85.86;97431.52;109033;1251;101786;-83
2023/08/18 07:37:42;;;;;;;12.60;8.60;;;;;;;21.14;85.89;97432.69;108836;1251;99984;-81
2023/08/18 07:40:10;;;;;;;11.70;9.00;;;;;;;21.33;85.86;97430.02;108814;1251;94180;-80
2023/08/18 07:42:39;;;;;;;10.60;8.50;;;;;;;21.58;85.63;97429.66;108853;1251;94580;-83
2023/08/18 07:45:09;;;;;;;9.40;8.30;;;;;;;21.91;85.57;97430.27;108818;1251;102505;-81
2023/08/18 07:47:37;;;;;;;10.60;7.80;;;;;;;22.27;84.75;97430.23;108819;1251;101479;-80
2023/08/18 07:50:07;;;;;;;8.50;7.50;;;;;;;22.60;83.75;97434.38;108796;1251;99851;-80
2023/08/18 07:52:36;;;;;;;7.50;6.80;;;;;;;22.98;83.04;97431.02;108780;1251;94534;-83
2023/08/18 07:55:05;;;;;;;8.20;7.30;;;;;;;23.28;82.07;97430.95;108818;1252;95884;-82
2023/08/18 07:57:33;;;;;;;10.10;7.10;;;;;;;23.69;80.77;97428.27;109011;1251;102474;-81
2023/08/18 08:00:07;;;;;;;9.50;7.00;;;;;;;24.13;79.45;97433.92;108939;1251;101696;-85
2023/08/18 08:02:35;;;;;;;8.10;6.10;;;;;;;24.57;78.62;97436.25;108852;1251;100111;-79
2023/08/18 08:05:05;;;;;;;7.50;6.80;;;;;;;25.00;77.85;97436.64;108897;1251;94258;-80
2023/08/18 08:07:36;;;;;;;8.30;5.70;;;;;;;25.44;77.43;97433.79;108939;1251;94414;-80
2023/08/18 08:10:05;;;;;;;9.50;6.70;;;;;;;25.84;76.05;97431.73;108941;1253;102284;-81
2023/08/18 08:12:34;;;;;;;8.00;5.90;;;;;;;26.18;75.02;97433.63;109010;1251;108787;-83
2023/08/18 08:15:03;;;;;;;8.90;6.00;;;;;;;26.48;73.83;97431.45;108887;1251;99861;-84
2023/08/18 08:17:31;;;;;;;6.90;6.00;;;;;;;26.81;72.93;97432.02;108883;1251;94261;-82
2023/08/18 08:19:59;;;;;;;11.60;6.60;;;;;;;27.08;71.37;97434.63;109030;1251;94185;-81
2023/08/18 08:22:28;;;;;;;10.90;6.80;;;;;;;27.31;69.26;97429.46;108918;1251;102364;-83
2023/08/18 08:24:55;;;;;;;6.80;5.80;;;;;;;27.53;70.00;97431.54;108820;1251;111301;-78
2023/08/18 08:27:23;;;;;;;7.70;5.60;;;;;;;27.81;68.21;97430.70;108821;1251;100013;-78
2023/08/18 08:29:51;;;;;;;8.90;5.60;;;;;;;28.07;66.67;97428.80;108795;1251;94609;-82
2023/08/18 08:32:19;;;;;;;8.00;5.60;;;;;;;28.33;66.81;97428.56;108806;1254;94275;-81
2023/08/18 08:34:51;;;;;;;6.40;5.50;;;;;;;28.62;66.49;97423.23;108854;1251;102573;-83
2023/08/18 08:37:19;;;;;;;;;;;;;;;28.91;65.29;97421.62;108896;1251;101625;-79
2023/08/18 08:39:46;;;;;;;8.40;5.80;;;;;;;29.14;65.20;97421.42;108885;1251;100143;-83
2023/08/18 08:42:14;;;;;;;9.20;5.80;;;;;;;29.45;64.29;97417.15;108990;1251;94260;-80
2023/08/18 08:44:42;;;;;;;8.40;5.80;;;;;;;29.75;63.19;97413.45;108935;1251;94165;-84
2023/08/18 08:47:11;;;;;;;6.10;5.40;;;;;;;30.06;62.67;97413.05;108852;1251;102352;-80
2023/08/18 08:49:43;;;;;;;7.20;5.60;;;;;;;30.38;61.52;97413.12;108817;1255;101593;-79
2023/08/18 08:52:13;;;;;;;6.40;5.60;;;;;;;30.61;60.56;97415.58;108817;1251;100266;-82
2023/08/18 08:54:50;;;;;;;6.20;5.70;;;;;;;30.84;59.66;97417.02;108816;1251;94175;-82
2023/08/18 08:57:21;;;;;;;13.90;6.50;;;;;;;31.00;58.74;97417.38;109015;1250;94207;-82
2023/08/18 08:59:48;;;;;;;7.30;6.20;;;;;;;31.19;59.20;97418.38;108930;1251;102112;-80
2023/08/18 09:02:16;;;;;;;8.30;5.30;;;;;;;31.36;58.62;97419.51;108920;1251;101417;-80
2023/08/18 09:04:44;;;;;;;9.30;5.80;;;;;;;31.54;56.55;97420.92;109025;1251;100086;-82
2023/08/18 09:07:13;;;;;;;9.50;5.30;;;;;;;31.67;57.38;97418.84;108945;1251;94235;-81
2023/08/18 09:09:42;;;;;;;6.40;5.20;;;;;;;31.91;57.34;97415.16;108871;1251;94277;-81
2023/08/18 09:12:11;;;;;;;7.10;5.40;;;;;;;32.19;55.54;97412.61;109016;1251;110362;-83
2023/08/18 09:14:40;;;;;;;6.80;5.60;;;;;;;32.32;53.59;97410.33;108902;1251;101633;-79
2023/08/18 09:17:08;;;;;;;6.20;5.60;;;;;;;32.36;53.93;97407.20;108829;1251;100268;-83
2023/08/18 09:19:36;;;;;;;8.40;5.70;;;;;;;32.50;53.68;97406.66;108778;1250;94172;-84
2023/08/18 09:22:04;;;;;;;6.10;5.50;;;;;;;32.59;54.28;97403.80;108856;1251;94205;-81
2023/08/18 09:24:35;;;;;;;5.50;4.80;;;;;;;32.65;52.13;97406.69;108815;1251;102286;-82
2023/08/18 09:27:10;;;;;;;6.50;5.60;;;;;;;32.70;51.47;97409.08;108875;1255;101495;-85
2023/08/18 09:29:38;;;;;;;6.80;6.10;;;;;;;32.79;51.01;97406.30;108840;1251;100130;-81
2023/08/18 09:32:08;;;;;;;6.90;5.60;;;;;;;32.81;50.94;97407.65;108830;1251;94202;-83
2023/08/18 09:34:39;;;;;;;6.00;5.30;;;;;;;32.83;50.74;97404.60;108797;1251;94196;-84
2023/08/18 09:37:07;;;;;;;8.30;5.40;;;;;;;32.85;50.22;97405.20;108871;1251;109839;-86
2023/08/18 09:39:35;;;;;;;6.60;5.00;;;;;;;32.95;50.21;97401.40;108843;1251;109188;-83
2023/08/18 09:42:03;;;;;;;6.10;5.00;;;;;;;33.10;49.88;97405.10;108826;1251;109571;-81
2023/08/18 09:44:32;;;;;;;6.00;5.30;;;;;;;33.18;49.61;97405.81;108763;1251;94232;-83
2023/08/18 09:47:00;;;;;;;6.50;5.00;;;;;;;33.20;49.31;97409.05;108857;1251;94178;-82
2023/08/18 09:49:28;;;;;;;5.30;4.70;;;;;;;33.18;48.75;97406.85;108851;1251;102528;-82
2023/08/18 09:52:16;;;;;;;6.20;5.50;;;;;;;33.08;48.28;97398.80;108823;1251;111137;-83
2023/08/18 09:54:55;;;;;;;6.20;5.10;;;;;;;32.99;48.85;97402.57;108859;1251;99009;-87
2023/08/18 09:57:31;;;;;;;5.30;4.80;;;;;;;33.02;47.92;97401.27;108860;1251;94162;-87
2023/08/18 10:00:01;;;;;;;6.00;5.00;;;;;;;33.10;48.11;97404.80;108815;1251;94215;-84
2023/08/18 10:02:34;;;;;;;5.20;4.50;;;;;;;33.19;47.89;97404.41;108896;1251;102496;-81
2023/08/18 10:05:04;;;;;;;6.60;5.30;;;;;;;33.21;47.51;97404.21;108852;1251;101843;-80
2023/08/18 10:07:33;;;;;;;5.50;5.00;;;;;;;33.28;47.08;97406.49;108803;1251;100199;-85
2023/08/18 10:10:01;;;;;;;10.60;4.80;;;;;;;33.40;47.05;97404.59;108786;1251;94199;-81
2023/08/18 10:12:29;;;;;;;4.60;4.20;;;;;;;33.49;46.70;97404.17;108803;1251;94171;-82
2023/08/18 10:14:57;;;;;;;6.90;4.70;;;;;;;33.59;45.55;97404.17;108830;1253;109941;-86
2023/08/18 10:17:25;;;;;;;6.00;4.70;;;;;;;33.55;45.17;97403.92;108703;1254;101474;-82
2023/08/18 10:19:58;;;;;;;5.80;4.60;;;;;;;33.53;45.55;97405.23;108668;1254;100340;-85
2023/08/18 10:22:29;;;;;;;5.00;4.50;;;;;;;33.55;44.78;97406.88;108650;1254;94467;-83
2023/08/18 10:24:57;;;;;;;6.90;4.40;;;;;;;33.48;44.75;97404.30;108653;1254;94240;-85
2023/08/18 10:27:28;;;;;;;9.80;4.20;;;;;;;33.47;44.75;97405.77;108705;1254;102572;-85
2023/08/18 10:29:57;;;;;;;6.10;4.50;;;;;;;33.49;44.24;97406.40;108686;1254;101202;-86
2023/08/18 10:32:25;;;;;;;5.40;4.50;;;;;;;33.51;44.30;97403.27;108273;1259;100123;-86
2023/08/18 10:34:53;;;;;;;4.70;3.60;;;;;;;33.63;43.97;97404.53;108278;1258;94219;-82
2023/08/18 10:37:22;;;;;;;5.00;3.90;;;;;;;33.75;43.70;97397.88;108307;1259;94296;-82
2023/08/18 10:39:52;;;;;;;6.70;4.60;;;;;;;33.80;43.69;97395.70;108142;1260;100778;-86
2023/08/18 10:42:23;;;;;;;4.00;3.70;;;;;;;33.77;43.72;97387.95;108146;1260;109448;-83
2023/08/18 10:44:59;;;;;;;4.00;3.60;;;;;;;33.71;42.48;97387.60;108148;1260;100555;-83
2023/08/18 10:47:34;;;;;;;4.20;3.80;;;;;;;33.70;43.33;97385.27;108131;1260;94307;-83
2023/08/18 10:50:05;;;;;;;4.80;4.30;;;;;;;33.77;42.90;97384.75;108214;1260;94204;-88
2023/08/18 10:52:32;;;;;;;5.60;3.90;;;;;;;33.79;42.96;97389.36;108240;1260;102416;-86
2023/08/18 10:55:00;;;;;;;4.60;4.00;;;;;;;33.78;43.14;97385.19;108269;1259;100335;-85
2023/08/18 10:57:28;;;;;;;5.20;4.40;;;;;;;33.83;42.78;97384.16;108203;1259;100151;-88
2023/08/18 10:59:56;;;;;;;4.50;4.10;;;;;;;33.86;42.53;97378.39;108211;1260;94274;-84
2023/08/18 11:02:23;;;;;;;4.80;4.00;;;;;;;33.84;42.22;97371.40;108237;1259;94308;-88
2023/08/18 11:04:51;;;;;;;4.30;3.80;;;;;;;33.84;42.82;97377.30;108538;1257;110081;-86
2023/08/18 11:07:22;;;;;;;4.50;4.10;;;;;;;33.81;42.04;97376.13;108533;1257;101474;-83
2023/08/18 11:09:50;;;;;;;5.00;4.30;;;;;;;33.80;42.13;97374.35;108685;1254;100637;-87
2023/08/18 11:12:19;;;;;;;6.50;4.10;;;;;;;33.80;42.21;97371.15;108647;1254;94291;-86
2023/08/18 11:14:46;;;;;;;5.10;3.80;;;;;;;33.82;42.01;97370.80;108686;1254;94247;-84
2023/08/18 11:17:14;;;;;;;4.10;3.70;;;;;;;33.82;41.62;97373.59;108811;1249;102505;-88
2023/08/18 11:19:42;;;;;;;4.40;4.00;;;;;;;33.69;41.29;97371.10;109034;1251;101482;-87
2023/08/18 11:22:11;;;;;;;5.30;3.90;;;;;;;33.60;42.03;97371.50;108886;1251;100131;-87